sensor_id;sensor_type;location;lat;lon;timestamp;temperature;humidity
15184;DHT22;7693;49.266;7.104;2023-05-10T00:01:37;13.60;99.90
15184;DHT22;7693;49.266;7.104;2023-05-10T00:04:03;13.70;99.90
15184;DHT22;7693;49.266;7.104;2023-05-10T00:06:29;13.70;99.90
15184;DHT22;7693;49.266;7.104;2023-05-10T00:08:55;13.60;99.90
15184;DHT22;7693;49.266;7.104;2023-05-10T00:11:20;13.60;99.90
15184;DHT22;7693;49.266;7.104;2023-05-10T00:13:46;13.60;99.90
15184;DHT22;7693;49.266;7.104;2023-05-10T00:16:12;13.60;99.90
15184;DHT22;7693;49.266;7.104;2023-05-10T00:18:38;13.60;99.90
15184;DHT22;7693;49.266;7.104;2023-05-10T00:21:04;13.60;99.90
15184;DHT22;7693;49.266;7.104;2023-05-10T00:23:30;13.60;99.90
15184;DHT22;7693;49.266;7.104;2023-05-10T00:25:55;13.60;99.90
15184;DHT22;7693;49.266;7.104;2023-05-10T00:28:21;13.60;99.90
15184;DHT22;7693;49.266;7.104;2023-05-10T00:30:47;13.60;99.90
15184;DHT22;7693;49.266;7.104;2023-05-10T00:33:12;13.60;99.90
15184;DHT22;7693;49.266;7.104;2023-05-10T00:35:38;13.60;99.90
15184;DHT22;7693;49.266;7.104;2023-05-10T00:38:04;13.60;99.90
15184;DHT22;7693;49.266;7.104;2023-05-10T00:40:29;13.60;99.90
15184;DHT22;7693;49.266;7.104;2023-05-10T00:42:56;13.60;99.90
15184;DHT22;7693;49.266;7.104;2023-05-10T00:45:22;13.60;99.90
15184;DHT22;7693;49.266;7.104;2023-05-10T00:47:48;13.60;99.90
15184;DHT22;7693;49.266;7.104;2023-05-10T00:50:14;13.60;99.90
15184;DHT22;7693;49.266;7.104;2023-05-10T00:52:41;13.50;99.90
15184;DHT22;7693;49.266;7.104;2023-05-10T00:55:07;13.50;99.90
15184;DHT22;7693;49.266;7.104;2023-05-10T00:57:34;13.50;99.90
15184;DHT22;7693;49.266;7.104;2023-05-10T01:00:01;13.50;99.90
15184;DHT22;7693;49.266;7.104;2023-05-10T01:02:27;13.40;99.90
15184;DHT22;7693;49.266;7.104;2023-05-10T01:04:53;13.40;99.90
15184;DHT22;7693;49.266;7.104;2023-05-10T01:07:19;13.40;99.90
15184;DHT22;7693;49.266;7.104;2023-05-10T01:09:45;13.40;99.90
15184;DHT22;7693;49.266;7.104;2023-05-10T01:12:11;13.40;99.90
15184;DHT22;7693;49.266;7.104;2023-05-10T01:14:37;13.40;99.90
15184;DHT22;7693;49.266;7.104;2023-05-10T01:17:03;13.40;99.90
15184;DHT22;7693;49.266;7.104;2023-05-10T01:19:31;13.40;99.90
15184;DHT22;7693;49.266;7.104;2023-05-10T01:22:16;13.40;99.90
15184;DHT22;7693;49.266;7.104;2023-05-10T01:25:07;13.40;99.90
15184;DHT22;7693;49.266;7.104;2023-05-10T01:38:29;13.40;99.90
15184;DHT22;7693;49.266;7.104;2023-05-10T01:41:19;13.40;99.90
15184;DHT22;7693;49.266;7.104;2023-05-10T01:46:27;13.50;99.90
15184;DHT22;7693;49.266;7.104;2023-05-10T01:48:55;13.50;99.90
15184;DHT22;7693;49.266;7.104;2023-05-10T01:51:24;13.40;99.90
15184;DHT22;7693;49.266;7.104;2023-05-10T01:53:56;13.50;99.90
15184;DHT22;7693;49.266;7.104;2023-05-10T01:56:26;13.50;99.90
15184;DHT22;7693;49.266;7.104;2023-05-10T01:58:54;13.50;99.90
15184;DHT22;7693;49.266;7.104;2023-05-10T02:01:21;13.50;99.90
15184;DHT22;7693;49.266;7.104;2023-05-10T02:03:48;13.40;99.90
15184;DHT22;7693;49.266;7.104;2023-05-10T02:06:16;13.40;99.90
15184;DHT22;7693;49.266;7.104;2023-05-10T02:08:44;13.40;99.90
15184;DHT22;7693;49.266;7.104;2023-05-10T02:11:13;13.40;99.90
15184;DHT22;7693;49.266;7.104;2023-05-10T02:13:39;13.40;99.90
15184;DHT22;7693;49.266;7.104;2023-05-10T02:16:05;13.40;99.90
15184;DHT22;7693;49.266;7.104;2023-05-10T02:18:32;13.40;99.90
15184;DHT22;7693;49.266;7.104;2023-05-10T02:20:59;13.40;99.90
15184;DHT22;7693;49.266;7.104;2023-05-10T02:23:26;13.40;99.90
15184;DHT22;7693;49.266;7.104;2023-05-10T02:25:52;13.40;99.90
15184;DHT22;7693;49.266;7.104;2023-05-10T02:28:19;13.40;99.90
15184;DHT22;7693;49.266;7.104;2023-05-10T02:30:47;13.40;99.90
15184;DHT22;7693;49.266;7.104;2023-05-10T02:33:13;13.40;99.90
15184;DHT22;7693;49.266;7.104;2023-05-10T02:35:39;13.40;99.90
15184;DHT22;7693;49.266;7.104;2023-05-10T02:38:06;13.40;99.90
15184;DHT22;7693;49.266;7.104;2023-05-10T02:40:33;13.40;99.90
15184;DHT22;7693;49.266;7.104;2023-05-10T02:43:01;13.40;99.90
15184;DHT22;7693;49.266;7.104;2023-05-10T02:45:30;13.40;99.90
15184;DHT22;7693;49.266;7.104;2023-05-10T02:47:56;13.30;99.90
15184;DHT22;7693;49.266;7.104;2023-05-10T02:50:22;13.40;99.90
15184;DHT22;7693;49.266;7.104;2023-05-10T02:52:51;13.30;99.90
15184;DHT22;7693;49.266;7.104;2023-05-10T02:55:21;13.40;99.90
15184;DHT22;7693;49.266;7.104;2023-05-10T02:57:59;13.40;99.90
15184;DHT22;7693;49.266;7.104;2023-05-10T03:00:25;13.40;99.90
15184;DHT22;7693;49.266;7.104;2023-05-10T03:02:51;13.40;99.90
15184;DHT22;7693;49.266;7.104;2023-05-10T03:05:17;13.40;99.90
15184;DHT22;7693;49.266;7.104;2023-05-10T03:07:43;13.40;99.90
15184;DHT22;7693;49.266;7.104;2023-05-10T03:10:10;13.40;99.90
15184;DHT22;7693;49.266;7.104;2023-05-10T03:15:31;13.40;99.90
15184;DHT22;7693;49.266;7.104;2023-05-10T03:18:07;13.40;99.90
15184;DHT22;7693;49.266;7.104;2023-05-10T03:20:48;13.40;99.90
15184;DHT22;7693;49.266;7.104;2023-05-10T03:25:44;13.40;99.90
15184;DHT22;7693;49.266;7.104;2023-05-10T03:28:12;13.40;99.90
15184;DHT22;7693;49.266;7.104;2023-05-10T03:30:41;13.40;99.90
15184;DHT22;7693;49.266;7.104;2023-05-10T03:33:08;13.40;99.90
15184;DHT22;7693;49.266;7.104;2023-05-10T03:35:33;13.40;99.90
15184;DHT22;7693;49.266;7.104;2023-05-10T03:37:59;13.40;99.90
15184;DHT22;7693;49.266;7.104;2023-05-10T03:40:26;13.40;99.90
15184;DHT22;7693;49.266;7.104;2023-05-10T03:42:54;13.40;99.90
15184;DHT22;7693;49.266;7.104;2023-05-10T03:45:20;13.40;99.90
15184;DHT22;7693;49.266;7.104;2023-05-10T03:47:45;13.40;99.90
15184;DHT22;7693;49.266;7.104;2023-05-10T03:50:11;13.40;99.90
15184;DHT22;7693;49.266;7.104;2023-05-10T03:52:36;13.40;99.90
15184;DHT22;7693;49.266;7.104;2023-05-10T03:55:04;13.40;99.90
15184;DHT22;7693;49.266;7.104;2023-05-10T03:57:30;13.30;99.90
15184;DHT22;7693;49.266;7.104;2023-05-10T03:59:56;13.30;99.90
15184;DHT22;7693;49.266;7.104;2023-05-10T04:02:21;13.30;99.90
15184;DHT22;7693;49.266;7.104;2023-05-10T04:04:47;13.30;99.90
15184;DHT22;7693;49.266;7.104;2023-05-10T04:07:13;13.30;99.90
15184;DHT22;7693;49.266;7.104;2023-05-10T04:09:39;13.30;99.90
15184;DHT22;7693;49.266;7.104;2023-05-10T04:12:04;13.30;99.90
15184;DHT22;7693;49.266;7.104;2023-05-10T04:14:30;13.30;99.90
15184;DHT22;7693;49.266;7.104;2023-05-10T04:16:56;13.30;99.90
15184;DHT22;7693;49.266;7.104;2023-05-10T04:19:21;13.30;99.90
15184;DHT22;7693;49.266;7.104;2023-05-10T04:21:47;13.30;99.90
15184;DHT22;7693;49.266;7.104;2023-05-10T04:24:13;13.30;99.90
15184;DHT22;7693;49.266;7.104;2023-05-10T04:26:39;13.30;99.90
15184;DHT22;7693;49.266;7.104;2023-05-10T04:29:04;13.30;99.90
15184;DHT22;7693;49.266;7.104;2023-05-10T04:31:30;13.30;99.90
15184;DHT22;7693;49.266;7.104;2023-05-10T04:33:55;13.30;99.90
15184;DHT22;7693;49.266;7.104;2023-05-10T04:36:21;13.30;99.90
15184;DHT22;7693;49.266;7.104;2023-05-10T04:38:47;13.30;99.90
15184;DHT22;7693;49.266;7.104;2023-05-10T04:41:12;13.30;99.90
15184;DHT22;7693;49.266;7.104;2023-05-10T04:43:38;13.30;99.90
15184;DHT22;7693;49.266;7.104;2023-05-10T04:46:04;13.30;99.90
15184;DHT22;7693;49.266;7.104;2023-05-10T04:48:30;13.20;99.90
15184;DHT22;7693;49.266;7.104;2023-05-10T04:50:56;13.30;99.90
15184;DHT22;7693;49.266;7.104;2023-05-10T04:53:21;13.30;99.90
15184;DHT22;7693;49.266;7.104;2023-05-10T04:55:47;13.30;99.90
15184;DHT22;7693;49.266;7.104;2023-05-10T04:58:13;13.30;99.90
15184;DHT22;7693;49.266;7.104;2023-05-10T05:00:39;13.30;99.90
15184;DHT22;7693;49.266;7.104;2023-05-10T05:03:04;13.30;99.90
15184;DHT22;7693;49.266;7.104;2023-05-10T05:05:30;13.30;99.90
15184;DHT22;7693;49.266;7.104;2023-05-10T05:07:56;13.30;99.90
15184;DHT22;7693;49.266;7.104;2023-05-10T05:10:22;13.20;99.90
15184;DHT22;7693;49.266;7.104;2023-05-10T05:12:47;13.20;99.90
15184;DHT22;7693;49.266;7.104;2023-05-10T05:15:13;13.20;99.90
15184;DHT22;7693;49.266;7.104;2023-05-10T05:17:40;13.20;99.90
15184;DHT22;7693;49.266;7.104;2023-05-10T05:20:06;13.10;99.90
15184;DHT22;7693;49.266;7.104;2023-05-10T05:22:32;13.20;99.90
15184;DHT22;7693;49.266;7.104;2023-05-10T05:24:58;13.20;99.90
15184;DHT22;7693;49.266;7.104;2023-05-10T05:27:24;13.20;99.90
15184;DHT22;7693;49.266;7.104;2023-05-10T05:29:55;13.10;99.90
15184;DHT22;7693;49.266;7.104;2023-05-10T05:32:21;13.20;99.90
15184;DHT22;7693;49.266;7.104;2023-05-10T05:34:47;13.10;99.90
15184;DHT22;7693;49.266;7.104;2023-05-10T05:37:17;13.10;99.90
15184;DHT22;7693;49.266;7.104;2023-05-10T05:39:43;13.20;99.90
15184;DHT22;7693;49.266;7.104;2023-05-10T05:42:10;13.20;99.90
15184;DHT22;7693;49.266;7.104;2023-05-10T05:44:36;13.20;99.90
15184;DHT22;7693;49.266;7.104;2023-05-10T05:47:01;13.20;99.90
15184;DHT22;7693;49.266;7.104;2023-05-10T05:49:27;13.20;99.90
15184;DHT22;7693;49.266;7.104;2023-05-10T05:51:53;13.20;99.90
15184;DHT22;7693;49.266;7.104;2023-05-10T05:54:18;13.10;99.90
15184;DHT22;7693;49.266;7.104;2023-05-10T05:56:44;13.10;99.90
15184;DHT22;7693;49.266;7.104;2023-05-10T05:59:10;13.10;99.90
15184;DHT22;7693;49.266;7.104;2023-05-10T06:01:36;13.10;99.90
15184;DHT22;7693;49.266;7.104;2023-05-10T06:04:01;13.10;99.90
15184;DHT22;7693;49.266;7.104;2023-05-10T06:06:27;13.10;99.90
15184;DHT22;7693;49.266;7.104;2023-05-10T06:08:53;13.20;99.90
15184;DHT22;7693;49.266;7.104;2023-05-10T06:11:18;13.30;99.90
15184;DHT22;7693;49.266;7.104;2023-05-10T06:13:44;13.30;99.90
15184;DHT22;7693;49.266;7.104;2023-05-10T06:16:10;13.40;99.90
15184;DHT22;7693;49.266;7.104;2023-05-10T06:18:36;13.60;99.90
15184;DHT22;7693;49.266;7.104;2023-05-10T06:21:01;13.70;99.90
15184;DHT22;7693;49.266;7.104;2023-05-10T06:23:27;13.70;99.90
15184;DHT22;7693;49.266;7.104;2023-05-10T06:25:52;13.80;99.90
15184;DHT22;7693;49.266;7.104;2023-05-10T06:28:18;13.80;99.90
15184;DHT22;7693;49.266;7.104;2023-05-10T06:30:44;13.80;99.90
15184;DHT22;7693;49.266;7.104;2023-05-10T06:33:09;13.90;99.90
15184;DHT22;7693;49.266;7.104;2023-05-10T06:35:35;13.80;99.90
15184;DHT22;7693;49.266;7.104;2023-05-10T06:38:02;13.80;99.90
15184;DHT22;7693;49.266;7.104;2023-05-10T06:40:27;13.70;99.90
15184;DHT22;7693;49.266;7.104;2023-05-10T06:42:53;13.70;99.90
15184;DHT22;7693;49.266;7.104;2023-05-10T06:45:19;13.60;99.90
15184;DHT22;7693;49.266;7.104;2023-05-10T06:47:44;13.60;99.90
15184;DHT22;7693;49.266;7.104;2023-05-10T06:50:11;13.50;99.90
15184;DHT22;7693;49.266;7.104;2023-05-10T06:52:37;13.50;99.90
15184;DHT22;7693;49.266;7.104;2023-05-10T06:55:06;13.50;99.90
15184;DHT22;7693;49.266;7.104;2023-05-10T06:57:32;13.60;99.90
15184;DHT22;7693;49.266;7.104;2023-05-10T07:00:01;13.50;99.90
15184;DHT22;7693;49.266;7.104;2023-05-10T07:02:29;13.40;99.90
15184;DHT22;7693;49.266;7.104;2023-05-10T07:04:54;13.30;99.90
15184;DHT22;7693;49.266;7.104;2023-05-10T07:07:20;13.30;99.90
15184;DHT22;7693;49.266;7.104;2023-05-10T07:09:46;13.30;99.90
15184;DHT22;7693;49.266;7.104;2023-05-10T07:12:11;13.40;99.90
15184;DHT22;7693;49.266;7.104;2023-05-10T07:14:37;13.30;99.90
15184;DHT22;7693;49.266;7.104;2023-05-10T07:17:03;13.30;99.90
15184;DHT22;7693;49.266;7.104;2023-05-10T07:19:28;13.40;99.90
15184;DHT22;7693;49.266;7.104;2023-05-10T07:21:54;13.50;99.90
15184;DHT22;7693;49.266;7.104;2023-05-10T07:24:20;13.50;99.90
15184;DHT22;7693;49.266;7.104;2023-05-10T07:26:46;13.50;99.90
15184;DHT22;7693;49.266;7.104;2023-05-10T07:29:11;13.50;99.90
15184;DHT22;7693;49.266;7.104;2023-05-10T07:31:37;13.60;99.90
15184;DHT22;7693;49.266;7.104;2023-05-10T07:34:08;13.60;99.90
15184;DHT22;7693;49.266;7.104;2023-05-10T07:36:34;13.60;99.90
15184;DHT22;7693;49.266;7.104;2023-05-10T07:38:59;13.60;99.90
15184;DHT22;7693;49.266;7.104;2023-05-10T07:41:25;13.60;99.90
15184;DHT22;7693;49.266;7.104;2023-05-10T07:43:51;13.70;99.90
15184;DHT22;7693;49.266;7.104;2023-05-10T07:46:16;13.70;99.90
15184;DHT22;7693;49.266;7.104;2023-05-10T07:48:42;13.80;99.90
15184;DHT22;7693;49.266;7.104;2023-05-10T07:51:07;13.80;99.90
15184;DHT22;7693;49.266;7.104;2023-05-10T07:53:34;13.80;99.90
15184;DHT22;7693;49.266;7.104;2023-05-10T07:59:22;13.90;99.90
15184;DHT22;7693;49.266;7.104;2023-05-10T08:01:47;13.80;99.90
15184;DHT22;7693;49.266;7.104;2023-05-10T08:04:13;13.80;99.90
15184;DHT22;7693;49.266;7.104;2023-05-10T08:06:39;13.90;99.90
15184;DHT22;7693;49.266;7.104;2023-05-10T08:09:05;13.90;99.90
15184;DHT22;7693;49.266;7.104;2023-05-10T08:11:31;13.90;99.90
15184;DHT22;7693;49.266;7.104;2023-05-10T08:13:56;13.80;99.90
15184;DHT22;7693;49.266;7.104;2023-05-10T08:16:22;13.80;99.90
15184;DHT22;7693;49.266;7.104;2023-05-10T08:18:47;13.70;99.90
15184;DHT22;7693;49.266;7.104;2023-05-10T08:21:14;13.70;99.90
15184;DHT22;7693;49.266;7.104;2023-05-10T08:23:40;13.70;99.90
15184;DHT22;7693;49.266;7.104;2023-05-10T08:26:06;13.80;99.90
15184;DHT22;7693;49.266;7.104;2023-05-10T08:28:32;13.90;99.90
15184;DHT22;7693;49.266;7.104;2023-05-10T08:30:57;13.90;99.90
15184;DHT22;7693;49.266;7.104;2023-05-10T08:33:23;14.00;99.90
15184;DHT22;7693;49.266;7.104;2023-05-10T08:35:48;14.10;99.90
15184;DHT22;7693;49.266;7.104;2023-05-10T08:38:14;14.20;99.90
15184;DHT22;7693;49.266;7.104;2023-05-10T08:40:44;14.20;99.90
15184;DHT22;7693;49.266;7.104;2023-05-10T08:43:11;14.30;99.90
15184;DHT22;7693;49.266;7.104;2023-05-10T08:45:39;14.30;99.90
15184;DHT22;7693;49.266;7.104;2023-05-10T08:48:06;14.40;99.90
15184;DHT22;7693;49.266;7.104;2023-05-10T08:50:37;14.40;99.90
15184;DHT22;7693;49.266;7.104;2023-05-10T08:53:12;14.50;99.90
15184;DHT22;7693;49.266;7.104;2023-05-10T08:55:38;14.60;99.90
15184;DHT22;7693;49.266;7.104;2023-05-10T08:58:07;14.70;99.90
15184;DHT22;7693;49.266;7.104;2023-05-10T09:00:33;14.70;99.90
15184;DHT22;7693;49.266;7.104;2023-05-10T09:02:59;14.70;99.90
15184;DHT22;7693;49.266;7.104;2023-05-10T09:05:25;14.70;99.90
15184;DHT22;7693;49.266;7.104;2023-05-10T09:07:51;14.60;99.90
15184;DHT22;7693;49.266;7.104;2023-05-10T09:17:04;14.30;99.90
15184;DHT22;7693;49.266;7.104;2023-05-10T09:19:30;14.10;99.90
15184;DHT22;7693;49.266;7.104;2023-05-10T09:21:55;14.10;99.90
15184;DHT22;7693;49.266;7.104;2023-05-10T09:24:25;14.20;99.90
15184;DHT22;7693;49.266;7.104;2023-05-10T09:26:52;14.30;99.90
15184;DHT22;7693;49.266;7.104;2023-05-10T09:29:18;14.40;99.90
15184;DHT22;7693;49.266;7.104;2023-05-10T09:34:10;14.60;99.90
15184;DHT22;7693;49.266;7.104;2023-05-10T09:36:35;14.80;99.90
15184;DHT22;7693;49.266;7.104;2023-05-10T09:39:01;15.00;99.90
15184;DHT22;7693;49.266;7.104;2023-05-10T09:41:27;15.10;99.90
15184;DHT22;7693;49.266;7.104;2023-05-10T09:43:58;15.10;99.90
15184;DHT22;7693;49.266;7.104;2023-05-10T09:46:26;15.10;99.90
15184;DHT22;7693;49.266;7.104;2023-05-10T09:48:52;15.10;99.90
15184;DHT22;7693;49.266;7.104;2023-05-10T09:51:30;15.00;99.90
15184;DHT22;7693;49.266;7.104;2023-05-10T09:54:16;14.90;99.90
15184;DHT22;7693;49.266;7.104;2023-05-10T09:56:42;14.70;99.90
15184;DHT22;7693;49.266;7.104;2023-05-10T09:59:12;14.60;99.90
15184;DHT22;7693;49.266;7.104;2023-05-10T13:30:41;18.10;99.90
15184;DHT22;7693;49.266;7.104;2023-05-10T13:33:10;18.10;99.90
15184;DHT22;7693;49.266;7.104;2023-05-10T13:35:35;18.10;99.90
15184;DHT22;7693;49.266;7.104;2023-05-10T13:38:04;18.20;99.90
15184;DHT22;7693;49.266;7.104;2023-05-10T13:40:29;18.40;99.90
15184;DHT22;7693;49.266;7.104;2023-05-10T13:42:58;18.30;99.90
15184;DHT22;7693;49.266;7.104;2023-05-10T13:45:24;18.10;99.90
15184;DHT22;7693;49.266;7.104;2023-05-10T13:47:49;17.90;99.90
15184;DHT22;7693;49.266;7.104;2023-05-10T13:50:15;17.70;99.90
15184;DHT22;7693;49.266;7.104;2023-05-10T13:52:44;17.60;99.90
15184;DHT22;7693;49.266;7.104;2023-05-10T13:55:09;17.60;99.90
15184;DHT22;7693;49.266;7.104;2023-05-10T13:57:37;17.70;99.90
15184;DHT22;7693;49.266;7.104;2023-05-10T14:00:06;17.70;99.90
15184;DHT22;7693;49.266;7.104;2023-05-10T14:02:33;17.80;99.90
15184;DHT22;7693;49.266;7.104;2023-05-10T14:04:58;17.80;99.90
15184;DHT22;7693;49.266;7.104;2023-05-10T14:07:26;17.90;99.90
15184;DHT22;7693;49.266;7.104;2023-05-10T14:09:52;17.90;99.90
15184;DHT22;7693;49.266;7.104;2023-05-10T14:12:18;18.00;99.90
15184;DHT22;7693;49.266;7.104;2023-05-10T14:14:43;18.10;99.90
15184;DHT22;7693;49.266;7.104;2023-05-10T14:17:09;18.10;99.90
15184;DHT22;7693;49.266;7.104;2023-05-10T14:19:34;18.00;99.90
15184;DHT22;7693;49.266;7.104;2023-05-10T14:22:00;17.80;99.90
15184;DHT22;7693;49.266;7.104;2023-05-10T14:24:26;17.60;99.90
15184;DHT22;7693;49.266;7.104;2023-05-10T14:26:51;17.50;99.90
15184;DHT22;7693;49.266;7.104;2023-05-10T14:29:19;17.50;99.90
15184;DHT22;7693;49.266;7.104;2023-05-10T14:31:54;17.50;99.90
15184;DHT22;7693;49.266;7.104;2023-05-10T14:34:20;17.50;99.90
15184;DHT22;7693;49.266;7.104;2023-05-10T14:36:48;17.50;99.90
15184;DHT22;7693;49.266;7.104;2023-05-10T14:39:16;17.80;99.90
15184;DHT22;7693;49.266;7.104;2023-05-10T14:41:42;18.10;99.90
15184;DHT22;7693;49.266;7.104;2023-05-10T14:44:09;18.30;99.90
15184;DHT22;7693;49.266;7.104;2023-05-10T14:46:35;18.40;99.90
15184;DHT22;7693;49.266;7.104;2023-05-10T14:49:03;18.50;99.90
15184;DHT22;7693;49.266;7.104;2023-05-10T14:51:32;18.60;99.90
15184;DHT22;7693;49.266;7.104;2023-05-10T14:54:03;18.60;99.90
15184;DHT22;7693;49.266;7.104;2023-05-10T14:56:32;18.70;99.90
15184;DHT22;7693;49.266;7.104;2023-05-10T14:58:57;18.70;99.90
15184;DHT22;7693;49.266;7.104;2023-05-10T15:01:23;18.50;99.90
15184;DHT22;7693;49.266;7.104;2023-05-10T15:03:51;18.40;99.90
15184;DHT22;7693;49.266;7.104;2023-05-10T15:06:17;18.20;99.90
15184;DHT22;7693;49.266;7.104;2023-05-10T15:08:51;18.00;99.90
15184;DHT22;7693;49.266;7.104;2023-05-10T15:11:17;17.80;99.90
15184;DHT22;7693;49.266;7.104;2023-05-10T15:13:42;17.70;99.90
15184;DHT22;7693;49.266;7.104;2023-05-10T15:16:11;17.50;99.90
15184;DHT22;7693;49.266;7.104;2023-05-10T15:18:40;17.30;99.90
15184;DHT22;7693;49.266;7.104;2023-05-10T15:21:05;17.10;99.90
15184;DHT22;7693;49.266;7.104;2023-05-10T15:23:34;16.90;99.90
15184;DHT22;7693;49.266;7.104;2023-05-10T15:26:00;16.70;99.90
15184;DHT22;7693;49.266;7.104;2023-05-10T15:28:26;16.60;99.90
15184;DHT22;7693;49.266;7.104;2023-05-10T15:30:51;16.40;99.90
15184;DHT22;7693;49.266;7.104;2023-05-10T15:33:17;16.40;99.90
15184;DHT22;7693;49.266;7.104;2023-05-10T15:35:42;16.30;99.90
15184;DHT22;7693;49.266;7.104;2023-05-10T15:38:09;16.20;99.90
15184;DHT22;7693;49.266;7.104;2023-05-10T15:40:34;16.20;99.90
15184;DHT22;7693;49.266;7.104;2023-05-10T15:43:00;16.10;99.90
15184;DHT22;7693;49.266;7.104;2023-05-10T15:45:26;16.10;99.90
15184;DHT22;7693;49.266;7.104;2023-05-10T15:47:52;16.00;99.90
15184;DHT22;7693;49.266;7.104;2023-05-10T15:50:17;15.90;99.90
15184;DHT22;7693;49.266;7.104;2023-05-10T15:52:43;15.80;99.90
15184;DHT22;7693;49.266;7.104;2023-05-10T15:55:09;15.80;99.90
15184;DHT22;7693;49.266;7.104;2023-05-10T15:57:41;15.70;99.90
15184;DHT22;7693;49.266;7.104;2023-05-10T16:00:11;15.80;99.90
15184;DHT22;7693;49.266;7.104;2023-05-10T16:02:37;15.80;99.90
15184;DHT22;7693;49.266;7.104;2023-05-10T16:05:07;15.80;99.90
15184;DHT22;7693;49.266;7.104;2023-05-10T16:07:33;15.80;99.90
15184;DHT22;7693;49.266;7.104;2023-05-10T16:09:58;15.80;99.90
15184;DHT22;7693;49.266;7.104;2023-05-10T16:12:24;15.90;99.90
15184;DHT22;7693;49.266;7.104;2023-05-10T16:14:49;16.10;99.90
15184;DHT22;7693;49.266;7.104;2023-05-10T16:17:15;16.40;99.90
15184;DHT22;7693;49.266;7.104;2023-05-10T16:19:41;16.50;99.90
15184;DHT22;7693;49.266;7.104;2023-05-10T16:22:06;16.60;99.90
15184;DHT22;7693;49.266;7.104;2023-05-10T16:24:35;16.70;99.90
15184;DHT22;7693;49.266;7.104;2023-05-10T16:27:04;16.80;99.90
15184;DHT22;7693;49.266;7.104;2023-05-10T16:29:29;16.80;99.90
15184;DHT22;7693;49.266;7.104;2023-05-10T16:31:56;16.80;99.90
15184;DHT22;7693;49.266;7.104;2023-05-10T16:34:21;16.80;99.90
15184;DHT22;7693;49.266;7.104;2023-05-10T16:36:52;16.80;99.90
15184;DHT22;7693;49.266;7.104;2023-05-10T16:39:20;16.90;99.90
15184;DHT22;7693;49.266;7.104;2023-05-10T16:41:49;17.00;99.90
15184;DHT22;7693;49.266;7.104;2023-05-10T16:44:14;17.00;99.90
15184;DHT22;7693;49.266;7.104;2023-05-10T16:46:44;17.00;99.90
15184;DHT22;7693;49.266;7.104;2023-05-10T16:49:13;17.00;99.90
15184;DHT22;7693;49.266;7.104;2023-05-10T16:51:42;17.00;99.90
15184;DHT22;7693;49.266;7.104;2023-05-10T16:54:07;16.80;99.90
15184;DHT22;7693;49.266;7.104;2023-05-10T16:56:36;16.80;99.90
15184;DHT22;7693;49.266;7.104;2023-05-10T16:59:01;16.70;99.90
15184;DHT22;7693;49.266;7.104;2023-05-10T17:01:27;16.60;99.90
15184;DHT22;7693;49.266;7.104;2023-05-10T17:03:52;16.60;99.90
15184;DHT22;7693;49.266;7.104;2023-05-10T17:06:21;16.50;99.90
15184;DHT22;7693;49.266;7.104;2023-05-10T17:08:47;16.40;99.90
15184;DHT22;7693;49.266;7.104;2023-05-10T17:11:12;16.30;99.90
15184;DHT22;7693;49.266;7.104;2023-05-10T17:13:38;16.30;99.90
15184;DHT22;7693;49.266;7.104;2023-05-10T17:16:06;16.30;99.90
15184;DHT22;7693;49.266;7.104;2023-05-10T17:18:32;16.20;99.90
15184;DHT22;7693;49.266;7.104;2023-05-10T17:20:58;16.20;99.90
15184;DHT22;7693;49.266;7.104;2023-05-10T17:23:23;16.10;99.90
15184;DHT22;7693;49.266;7.104;2023-05-10T17:25:49;16.10;99.90
15184;DHT22;7693;49.266;7.104;2023-05-10T17:28:14;16.10;99.90
15184;DHT22;7693;49.266;7.104;2023-05-10T17:30:40;16.10;99.90
15184;DHT22;7693;49.266;7.104;2023-05-10T17:33:05;16.00;99.90
15184;DHT22;7693;49.266;7.104;2023-05-10T17:35:34;16.00;99.90
15184;DHT22;7693;49.266;7.104;2023-05-10T17:38:02;15.90;99.90
15184;DHT22;7693;49.266;7.104;2023-05-10T17:40:31;15.90;99.90
15184;DHT22;7693;49.266;7.104;2023-05-10T17:42:56;15.80;99.90
15184;DHT22;7693;49.266;7.104;2023-05-10T17:45:22;15.70;99.90
15184;DHT22;7693;49.266;7.104;2023-05-10T17:47:51;15.70;99.90
15184;DHT22;7693;49.266;7.104;2023-05-10T17:50:16;15.60;99.90
15184;DHT22;7693;49.266;7.104;2023-05-10T17:52:42;15.60;99.90
15184;DHT22;7693;49.266;7.104;2023-05-10T17:55:07;15.50;99.90
15184;DHT22;7693;49.266;7.104;2023-05-10T17:57:33;15.50;99.90
15184;DHT22;7693;49.266;7.104;2023-05-10T17:59:59;15.40;99.90
15184;DHT22;7693;49.266;7.104;2023-05-10T18:02:29;15.40;99.90
15184;DHT22;7693;49.266;7.104;2023-05-10T18:04:54;15.30;99.90
15184;DHT22;7693;49.266;7.104;2023-05-10T18:07:20;15.20;99.90
15184;DHT22;7693;49.266;7.104;2023-05-10T18:09:50;15.10;99.90
15184;DHT22;7693;49.266;7.104;2023-05-10T18:12:16;15.10;99.90
15184;DHT22;7693;49.266;7.104;2023-05-10T18:14:42;15.10;99.90
15184;DHT22;7693;49.266;7.104;2023-05-10T18:17:08;15.10;99.90
15184;DHT22;7693;49.266;7.104;2023-05-10T18:19:40;15.10;99.90
15184;DHT22;7693;49.266;7.104;2023-05-10T18:22:06;15.10;99.90
15184;DHT22;7693;49.266;7.104;2023-05-10T18:24:32;15.10;99.90
15184;DHT22;7693;49.266;7.104;2023-05-10T18:27:01;15.00;99.90
15184;DHT22;7693;49.266;7.104;2023-05-10T18:29:27;15.00;99.90
15184;DHT22;7693;49.266;7.104;2023-05-10T18:31:53;15.00;99.90
15184;DHT22;7693;49.266;7.104;2023-05-10T18:34:18;14.90;99.90
15184;DHT22;7693;49.266;7.104;2023-05-10T18:36:47;14.80;99.90
15184;DHT22;7693;49.266;7.104;2023-05-10T18:39:13;14.80;99.90
15184;DHT22;7693;49.266;7.104;2023-05-10T18:41:38;14.80;99.90
15184;DHT22;7693;49.266;7.104;2023-05-10T18:44:04;14.70;99.90
15184;DHT22;7693;49.266;7.104;2023-05-10T18:46:29;14.70;99.90
15184;DHT22;7693;49.266;7.104;2023-05-10T18:48:55;14.60;99.90
15184;DHT22;7693;49.266;7.104;2023-05-10T18:51:21;14.60;99.90
15184;DHT22;7693;49.266;7.104;2023-05-10T18:53:47;14.50;99.90
15184;DHT22;7693;49.266;7.104;2023-05-10T18:56:13;14.50;99.90
15184;DHT22;7693;49.266;7.104;2023-05-10T18:58:42;14.40;99.90
15184;DHT22;7693;49.266;7.104;2023-05-10T19:01:07;14.30;99.90
15184;DHT22;7693;49.266;7.104;2023-05-10T19:03:37;14.30;99.90
15184;DHT22;7693;49.266;7.104;2023-05-10T19:06:03;14.20;99.90
15184;DHT22;7693;49.266;7.104;2023-05-10T19:08:32;14.20;99.90
15184;DHT22;7693;49.266;7.104;2023-05-10T19:10:57;14.10;99.90
15184;DHT22;7693;49.266;7.104;2023-05-10T19:13:23;14.00;99.90
15184;DHT22;7693;49.266;7.104;2023-05-10T19:16:10;13.90;99.90
15184;DHT22;7693;49.266;7.104;2023-05-10T19:18:36;13.80;99.90
15184;DHT22;7693;49.266;7.104;2023-05-10T19:21:02;13.70;99.90
15184;DHT22;7693;49.266;7.104;2023-05-10T19:23:33;13.60;99.90
15184;DHT22;7693;49.266;7.104;2023-05-10T19:26:03;13.50;99.90
15184;DHT22;7693;49.266;7.104;2023-05-10T19:28:28;13.40;99.90
15184;DHT22;7693;49.266;7.104;2023-05-10T19:30:55;13.30;99.90
15184;DHT22;7693;49.266;7.104;2023-05-10T19:33:21;13.20;99.90
15184;DHT22;7693;49.266;7.104;2023-05-10T19:35:48;13.10;99.90
15184;DHT22;7693;49.266;7.104;2023-05-10T19:38:18;13.00;99.90
15184;DHT22;7693;49.266;7.104;2023-05-10T19:40:44;13.00;99.90
15184;DHT22;7693;49.266;7.104;2023-05-10T19:43:09;12.90;99.90